Time;durP1;ratioP1;P1;durP2;ratioP2;P2;SDS_P1;SDS_P2;PMS_P1;PMS_P2;Temp;Humidity;BMP_temperature;BMP_pressure;BME280_temperature;BME280_humidity;BME280_pressure;Samples;Min_cycle;Max_cycle;Signal;HPM_P1;HPM_P2
2021/12/23 00:00:48;;;;;;;;;;;-0.60;99.90;;;;;;5034564;28;20205;-81
2021/12/23 00:03:13;;;;;;;;;;;-0.60;99.90;;;;;;5035136;28;20308;-81
2021/12/23 00:05:39;;;;;;;;;;;-0.60;99.90;;;;;;5035178;28;19912;-81
2021/12/23 00:08:05;;;;;;;;;;;-0.60;99.90;;;;;;5034421;28;20193;-81
2021/12/23 00:10:30;;;;;;;;;;;-0.60;99.90;;;;;;5034832;28;19913;-80
2021/12/23 00:12:56;;;;;;;;;;;-0.60;99.90;;;;;;5050832;28;19913;-80
2021/12/23 00:15:31;;;;;;;;;;;-0.60;99.90;;;;;;5034602;28;19921;-80
2021/12/23 00:25:33;;;;;;;;;;;-0.70;99.90;;;;;;5035080;28;20323;-79
2021/12/23 00:27:59;;;;;;;;;;;-0.60;99.90;;;;;;5034926;28;19913;-79
2021/12/23 00:30:25;;;;;;;;;;;-0.60;99.90;;;;;;5033539;28;19913;-80
2021/12/23 00:32:51;;;;;;;;;;;-0.70;99.90;;;;;;5033696;28;19917;-80
2021/12/23 00:35:16;;;;;;;;;;;-0.70;99.90;;;;;;5034808;28;19914;-80
2021/12/23 00:37:45;;;;;;;;;;;-0.80;99.90;;;;;;5033535;28;19971;-80
2021/12/23 00:40:12;;;;;;;;;;;-0.70;99.90;;;;;;5034186;28;19971;-80
2021/12/23 00:42:38;;;;;;;;;;;-0.80;99.90;;;;;;5033430;28;19913;-80
2021/12/23 00:45:05;;;;;;;;;;;-0.70;99.90;;;;;;5033427;28;19917;-80
2021/12/23 00:47:30;;;;;;;;;;;-0.70;99.90;;;;;;5034597;28;20416;-80
2021/12/23 00:49:56;;;;;;;;;;;-0.70;99.90;;;;;;5033583;28;19916;-80
2021/12/23 00:52:32;;;;;;;;;;;-0.70;99.90;;;;;;5034505;28;19945;-80
2021/12/23 00:54:58;;;;;;;;;;;-0.70;99.90;;;;;;5033719;28;19921;-80
2021/12/23 00:57:29;;;;;;;;;;;-0.70;99.90;;;;;;5034576;28;20339;-77
2021/12/23 00:59:55;;;;;;;;;;;-0.70;99.90;;;;;;5034008;28;20194;-79
2021/12/23 01:02:27;;;;;;;;;;;-0.70;99.90;;;;;;5034720;28;19956;-79
2021/12/23 01:04:53;;;;;;;;;;;-0.70;99.90;;;;;;5033193;28;19917;-80
2021/12/23 01:07:19;;;;;;;;;;;-0.70;99.90;;;;;;5034409;28;19913;-80
2021/12/23 01:09:45;;;;;;;;;;;-0.70;99.90;;;;;;5034571;28;19928;-79
2021/12/23 01:12:13;;;;;;;;;;;-0.70;99.90;;;;;;5037024;28;19924;-79
2021/12/23 01:14:52;;;;;;;;;;;-0.60;99.90;;;;;;5037942;28;19917;-79
2021/12/23 01:19:49;;;;;;;;;;;-0.50;99.90;;;;;;5038689;28;19920;-81
2021/12/23 01:22:15;;;;;;;;;;;-0.50;99.90;;;;;;5037496;28;19913;-79
2021/12/23 01:24:40;;;;;;;;;;;-0.50;99.90;;;;;;5037513;28;19932;-80
2021/12/23 01:27:06;;;;;;;;;;;-0.60;99.90;;;;;;5036369;28;19921;-80
2021/12/23 01:29:32;;;;;;;;;;;-0.50;99.90;;;;;;5038189;28;19999;-80
2021/12/23 01:32:00;;;;;;;;;;;-0.50;99.90;;;;;;5038328;28;19919;-79
2021/12/23 01:34:25;;;;;;;;;;;-0.50;99.90;;;;;;5038070;28;20243;-80
2021/12/23 01:36:51;;;;;;;;;;;-0.50;99.90;;;;;;5038219;28;19921;-80
2021/12/23 01:39:16;;;;;;;;;;;-0.50;99.90;;;;;;5037524;28;20012;-79
2021/12/23 01:41:42;;;;;;;;;;;-0.50;99.90;;;;;;5029728;28;19913;-80
2021/12/23 01:44:08;;;;;;;;;;;-0.50;99.90;;;;;;5036241;28;20003;-79
2021/12/23 01:46:33;;;;;;;;;;;-0.50;99.90;;;;;;5031168;28;19921;-80
2021/12/23 01:48:59;;;;;;;;;;;-0.60;99.90;;;;;;5036760;28;19917;-80
2021/12/23 01:51:25;;;;;;;;;;;-0.60;99.90;;;;;;5031812;28;19913;-81
2021/12/23 01:53:50;;;;;;;;;;;-0.60;99.90;;;;;;5035417;28;19944;-79
2021/12/23 01:56:17;;;;;;;;;;;-0.70;99.90;;;;;;5036307;28;20019;-80
2021/12/23 01:58:43;;;;;;;;;;;-0.80;99.90;;;;;;5037746;28;19913;-80
2021/12/23 02:01:09;;;;;;;;;;;-0.80;99.90;;;;;;5037147;28;20347;-77
2021/12/23 02:03:35;;;;;;;;;;;-0.90;99.90;;;;;;5037395;28;20313;-80
2021/12/23 02:06:01;;;;;;;;;;;-0.80;99.90;;;;;;5036149;28;19921;-81
2021/12/23 02:08:27;;;;;;;;;;;-0.80;99.90;;;;;;5037641;28;20276;-81
2021/12/23 02:10:53;;;;;;;;;;;-0.80;99.90;;;;;;5036801;28;20224;-79
2021/12/23 02:13:20;;;;;;;;;;;-0.80;99.90;;;;;;5037499;28;19917;-77
2021/12/23 02:15:45;;;;;;;;;;;-0.80;99.90;;;;;;5037120;28;19913;-80
2021/12/23 02:18:11;;;;;;;;;;;-0.80;99.90;;;;;;5035269;28;19923;-79
2021/12/23 02:20:37;;;;;;;;;;;-0.80;99.90;;;;;;5037398;28;19913;-80
2021/12/23 02:23:03;;;;;;;;;;;-0.80;99.90;;;;;;5036333;28;19917;-79
2021/12/23 02:25:28;;;;;;;;;;;-0.80;99.90;;;;;;5037115;28;19928;-78
2021/12/23 02:27:54;;;;;;;;;;;-0.70;99.90;;;;;;5035457;28;19917;-79
2021/12/23 02:30:22;;;;;;;;;;;-0.70;99.90;;;;;;5036008;28;19949;-79
2021/12/23 02:32:48;;;;;;;;;;;-0.80;99.90;;;;;;5037067;28;20596;-79
2021/12/23 02:35:14;;;;;;;;;;;-0.70;99.90;;;;;;5035569;28;19947;-79
2021/12/23 02:37:41;;;;;;;;;;;-0.70;99.90;;;;;;5036704;28;20232;-80
2021/12/23 02:40:07;;;;;;;;;;;-0.80;99.90;;;;;;5043035;23;19936;-80
2021/12/23 02:42:33;;;;;;;;;;;-0.70;99.90;;;;;;5022464;28;19929;-79
2021/12/23 02:44:58;;;;;;;;;;;-0.70;99.90;;;;;;5037032;28;19917;-81
2021/12/23 02:47:24;;;;;;;;;;;-0.70;99.90;;;;;;5037089;28;19913;-79
2021/12/23 02:49:50;;;;;;;;;;;-0.70;99.90;;;;;;5036399;28;19971;-78
2021/12/23 02:52:16;;;;;;;;;;;-0.70;99.90;;;;;;5036836;28;20312;-79
2021/12/23 02:54:41;;;;;;;;;;;-0.70;99.90;;;;;;5035778;28;19921;-79
2021/12/23 02:57:07;;;;;;;;;;;-0.60;99.90;;;;;;5035922;28;20286;-80
2021/12/23 02:59:33;;;;;;;;;;;-0.70;99.90;;;;;;5038571;28;20216;-79
2021/12/23 03:02:00;;;;;;;;;;;-0.70;99.90;;;;;;5035082;28;19917;-79
2021/12/23 03:04:25;;;;;;;;;;;-0.70;99.90;;;;;;5036371;28;19955;-79
2021/12/23 03:06:54;;;;;;;;;;;-0.70;99.90;;;;;;5036481;28;19948;-78
2021/12/23 03:09:20;;;;;;;;;;;-0.60;99.90;;;;;;5034020;28;20012;-76
2021/12/23 03:11:45;;;;;;;;;;;-0.60;99.90;;;;;;5036359;28;20008;-80
2021/12/23 03:14:11;;;;;;;;;;;-0.60;99.90;;;;;;5036025;28;19917;-80
2021/12/23 03:16:38;;;;;;;;;;;-0.70;99.90;;;;;;5029998;28;19921;-79
2021/12/23 03:19:04;;;;;;;;;;;-0.60;99.90;;;;;;5034933;28;20705;-80
2021/12/23 03:21:30;;;;;;;;;;;-0.60;99.90;;;;;;5036349;28;19916;-79
2021/12/23 03:23:55;;;;;;;;;;;-0.60;99.90;;;;;;5035905;28;19917;-79
2021/12/23 03:26:22;;;;;;;;;;;-0.60;99.90;;;;;;5033412;28;20007;-80
2021/12/23 03:28:48;;;;;;;;;;;-0.60;99.90;;;;;;5034710;28;19920;-80
2021/12/23 03:31:14;;;;;;;;;;;-0.50;99.90;;;;;;5035334;28;19917;-80
2021/12/23 03:33:39;;;;;;;;;;;-0.60;99.90;;;;;;5034646;28;21619;-80
2021/12/23 03:36:05;;;;;;;;;;;-0.60;99.90;;;;;;5033386;28;20278;-80
2021/12/23 03:38:30;;;;;;;;;;;-0.60;99.90;;;;;;5034533;28;19932;-79
2021/12/23 03:40:56;;;;;;;;;;;-0.60;99.90;;;;;;5034961;28;20331;-80
2021/12/23 03:43:22;;;;;;;;;;;-0.70;99.90;;;;;;5035665;28;19960;-79
2021/12/23 03:45:48;;;;;;;;;;;-0.70;99.90;;;;;;5034137;28;19917;-78
2021/12/23 03:48:14;;;;;;;;;;;-0.70;99.90;;;;;;5035072;28;19913;-79
2021/12/23 03:50:41;;;;;;;;;;;-0.80;99.90;;;;;;5035536;28;19960;-79
2021/12/23 03:53:07;;;;;;;;;;;-0.80;99.90;;;;;;5034838;28;19917;-80
2021/12/23 03:55:33;;;;;;;;;;;-0.80;99.90;;;;;;5035279;28;19919;-80
2021/12/23 03:57:59;;;;;;;;;;;-0.80;99.90;;;;;;5035319;28;19924;-79
2021/12/23 04:00:25;;;;;;;;;;;-0.80;99.90;;;;;;5034882;28;19913;-79
2021/12/23 04:02:51;;;;;;;;;;;-0.90;99.90;;;;;;5020310;28;20213;-78
2021/12/23 04:05:17;;;;;;;;;;;-0.80;99.90;;;;;;5031291;28;20007;-79
2021/12/23 04:07:43;;;;;;;;;;;-0.90;99.90;;;;;;5029938;28;19917;-80
2021/12/23 04:10:10;;;;;;;;;;;-0.80;99.90;;;;;;5029806;28;19913;-81
2021/12/23 04:12:36;;;;;;;;;;;-0.80;99.90;;;;;;5028950;28;19921;-79
2021/12/23 04:15:02;;;;;;;;;;;-0.80;99.90;;;;;;5029595;28;19914;-78
2021/12/23 04:17:28;;;;;;;;;;;-0.80;99.90;;;;;;5029827;28;19918;-81
2021/12/23 04:20:09;;;;;;;;;;;-0.70;99.90;;;;;;5030689;28;19929;-82
2021/12/23 04:22:35;;;;;;;;;;;-0.80;99.90;;;;;;5025996;28;20378;-79
2021/12/23 04:25:01;;;;;;;;;;;-0.80;99.90;;;;;;5029342;28;20015;-78
2021/12/23 04:27:26;;;;;;;;;;;-0.80;99.90;;;;;;5030384;28;19917;-80
2021/12/23 04:29:52;;;;;;;;;;;-0.80;99.90;;;;;;5032142;28;20367;-78
2021/12/23 04:32:17;;;;;;;;;;;-0.80;99.90;;;;;;5030881;28;19913;-79
2021/12/23 04:34:43;;;;;;;;;;;-0.80;99.90;;;;;;5030447;28;20316;-79
2021/12/23 04:37:08;;;;;;;;;;;-0.80;99.90;;;;;;5027304;28;19917;-78
2021/12/23 04:39:34;;;;;;;;;;;-0.80;99.90;;;;;;5031746;28;20256;-79
2021/12/23 04:41:59;;;;;;;;;;;-0.80;99.90;;;;;;5029850;28;19932;-77
2021/12/23 04:44:26;;;;;;;;;;;-0.80;99.90;;;;;;5030062;28;20228;-79
2021/12/23 04:46:51;;;;;;;;;;;-0.90;99.90;;;;;;5028186;28;19917;-80
2021/12/23 04:49:21;;;;;;;;;;;-0.90;99.90;;;;;;5030149;28;19913;-79
2021/12/23 04:51:47;;;;;;;;;;;-0.90;99.90;;;;;;5026792;28;19928;-78
2021/12/23 04:54:12;;;;;;;;;;;-0.90;99.90;;;;;;5029562;28;20293;-77
2021/12/23 04:56:38;;;;;;;;;;;-0.90;99.90;;;;;;5031394;28;19917;-79
2021/12/23 04:59:04;;;;;;;;;;;-0.90;99.90;;;;;;5029039;28;20000;-78
2021/12/23 05:01:31;;;;;;;;;;;-0.90;99.90;;;;;;5032337;28;20316;-79
2021/12/23 05:03:57;;;;;;;;;;;-0.90;99.90;;;;;;5033387;28;19916;-79
2021/12/23 05:06:23;;;;;;;;;;;-0.90;99.90;;;;;;5034227;28;20266;-79
2021/12/23 05:08:48;;;;;;;;;;;-0.90;99.90;;;;;;5033132;28;19913;-78
2021/12/23 05:11:15;;;;;;;;;;;-0.90;99.90;;;;;;5033748;28;19986;-78
2021/12/23 05:13:40;;;;;;;;;;;-0.90;99.90;;;;;;5032293;28;19921;-78
2021/12/23 05:16:06;;;;;;;;;;;-0.90;99.90;;;;;;5034231;28;20223;-78
2021/12/23 05:18:31;;;;;;;;;;;-0.90;99.90;;;;;;5034208;28;19917;-79
2021/12/23 05:20:57;;;;;;;;;;;-0.90;99.90;;;;;;5033416;28;19917;-79
2021/12/23 05:23:23;;;;;;;;;;;-0.90;99.90;;;;;;5034169;28;20004;-79
2021/12/23 05:25:48;;;;;;;;;;;-0.90;99.90;;;;;;5034402;28;19921;-78
2021/12/23 05:28:14;;;;;;;;;;;-0.90;99.90;;;;;;5032284;28;19921;-79
2021/12/23 05:33:14;;;;;;;;;;;-0.90;99.90;;;;;;5033440;28;20019;-77
2021/12/23 05:35:40;;;;;;;;;;;-0.90;99.90;;;;;;5030432;28;20355;-76
2021/12/23 05:38:05;;;;;;;;;;;-0.90;99.90;;;;;;5047296;28;19917;-79
2021/12/23 05:40:32;;;;;;;;;;;-0.90;99.90;;;;;;5032982;28;19925;-78
2021/12/23 05:42:58;;;;;;;;;;;-0.90;99.90;;;;;;5033078;28;20319;-78
2021/12/23 05:45:23;;;;;;;;;;;-0.90;99.90;;;;;;5047242;28;19917;-79
2021/12/23 05:47:51;;;;;;;;;;;-0.90;99.90;;;;;;5031817;28;20451;-79
2021/12/23 05:50:18;;;;;;;;;;;-0.90;99.90;;;;;;5030899;28;19921;-77
2021/12/23 05:52:43;;;;;;;;;;;-0.90;99.90;;;;;;5030824;28;19917;-78
2021/12/23 05:55:10;;;;;;;;;;;-0.90;99.90;;;;;;5033083;28;20559;-78
2021/12/23 05:57:36;;;;;;;;;;;-0.90;99.90;;;;;;5030425;28;20205;-78
2021/12/23 06:00:03;;;;;;;;;;;-0.90;99.90;;;;;;5035185;28;20015;-78
2021/12/23 06:02:29;;;;;;;;;;;-0.90;99.90;;;;;;5035835;28;20271;-78
2021/12/23 06:04:54;;;;;;;;;;;-0.90;99.90;;;;;;5036436;28;19913;-78
2021/12/23 06:07:21;;;;;;;;;;;-0.90;99.90;;;;;;5035399;28;19974;-75
2021/12/23 06:09:47;;;;;;;;;;;-0.90;99.90;;;;;;5035507;28;19995;-79
2021/12/23 06:12:12;;;;;;;;;;;-0.90;99.90;;;;;;5034969;28;19920;-78
2021/12/23 06:14:38;;;;;;;;;;;-0.80;99.90;;;;;;5032514;28;20004;-78
2021/12/23 06:17:03;;;;;;;;;;;-0.80;99.90;;;;;;5036585;28;19921;-78
2021/12/23 06:19:29;;;;;;;;;;;-0.80;99.90;;;;;;5036630;28;20356;-79
2021/12/23 06:21:55;;;;;;;;;;;-0.80;99.90;;;;;;5036767;28;19913;-79
2021/12/23 06:24:21;;;;;;;;;;;-0.80;99.90;;;;;;5034556;28;19960;-76
2021/12/23 06:26:46;;;;;;;;;;;-0.80;99.90;;;;;;5035105;28;20295;-78
2021/12/23 06:29:12;;;;;;;;;;;-0.70;99.90;;;;;;5036116;28;19920;-79
2021/12/23 06:31:37;;;;;;;;;;;-0.70;99.90;;;;;;5036267;28;20335;-78
2021/12/23 06:34:03;;;;;;;;;;;-0.70;99.90;;;;;;5035629;28;19913;-79
2021/12/23 06:36:28;;;;;;;;;;;-0.70;99.90;;;;;;5036111;28;19986;-79
2021/12/23 06:38:54;;;;;;;;;;;-0.70;99.90;;;;;;5036077;28;19925;-78
2021/12/23 06:41:20;;;;;;;;;;;-0.70;99.90;;;;;;5050708;28;20312;-77
2021/12/23 06:43:46;;;;;;;;;;;-0.70;99.90;;;;;;5035717;28;19913;-78
2021/12/23 06:46:11;;;;;;;;;;;-0.60;99.90;;;;;;5034842;28;19917;-79
2021/12/23 06:48:37;;;;;;;;;;;-0.70;99.90;;;;;;5034262;28;19963;-78
2021/12/23 06:51:03;;;;;;;;;;;-0.60;99.90;;;;;;5035847;28;20642;-78
2021/12/23 06:53:29;;;;;;;;;;;-0.60;99.90;;;;;;5035647;28;19913;-78
2021/12/23 06:55:55;;;;;;;;;;;-0.60;99.90;;;;;;5035860;28;19971;-78
2021/12/23 06:58:23;;;;;;;;;;;-0.60;99.90;;;;;;5033857;28;20012;-77
2021/12/23 07:00:48;;;;;;;;;;;-0.60;99.90;;;;;;5032582;28;20312;-78
2021/12/23 07:03:14;;;;;;;;;;;-0.60;99.90;;;;;;5035240;28;19913;-77
2021/12/23 07:05:40;;;;;;;;;;;-0.60;99.90;;;;;;5033771;28;19921;-78
2021/12/23 07:08:10;;;;;;;;;;;-0.60;99.90;;;;;;5035495;28;19987;-78
2021/12/23 07:10:37;;;;;;;;;;;-0.60;99.90;;;;;;5048677;28;19917;-78
2021/12/23 07:13:02;;;;;;;;;;;-0.60;99.90;;;;;;5035718;28;19917;-78
2021/12/23 07:15:28;;;;;;;;;;;-0.50;99.90;;;;;;5035265;28;20209;-78
2021/12/23 07:17:55;;;;;;;;;;;-0.50;99.90;;;;;;5035286;28;19917;-78
2021/12/23 07:20:21;;;;;;;;;;;-0.40;99.90;;;;;;5035294;28;19989;-78
2021/12/23 07:22:46;;;;;;;;;;;-0.40;99.90;;;;;;5035545;28;20038;-78
2021/12/23 07:25:15;;;;;;;;;;;-0.40;99.90;;;;;;5034952;28;19921;-78
2021/12/23 07:27:41;;;;;;;;;;;-0.40;99.90;;;;;;5035191;28;19948;-78
2021/12/23 07:30:08;;;;;;;;;;;-0.30;99.90;;;;;;5035416;28;19917;-79
2021/12/23 07:32:34;;;;;;;;;;;-0.30;99.90;;;;;;5034786;28;19920;-79
2021/12/23 07:35:00;;;;;;;;;;;-0.30;99.90;;;;;;5035011;28;19917;-79
2021/12/23 07:37:26;;;;;;;;;;;-0.30;99.90;;;;;;5034160;28;19929;-79
2021/12/23 07:39:55;;;;;;;;;;;-0.30;99.90;;;;;;5032440;28;20014;-78
2021/12/23 07:42:21;;;;;;;;;;;-0.30;99.90;;;;;;5033169;28;20116;-78
2021/12/23 07:44:46;;;;;;;;;;;-0.30;99.90;;;;;;5033709;28;19917;-79
2021/12/23 07:47:12;;;;;;;;;;;-0.30;99.90;;;;;;5032447;28;19913;-79
2021/12/23 07:49:38;;;;;;;;;;;-0.30;99.90;;;;;;5032021;28;19948;-79
2021/12/23 07:52:06;;;;;;;;;;;-0.30;99.90;;;;;;5035168;28;19919;-79
2021/12/23 07:54:32;;;;;;;;;;;-0.30;99.90;;;;;;5034138;28;19917;-79
2021/12/23 07:56:58;;;;;;;;;;;-0.30;99.90;;;;;;5033003;28;20312;-79
2021/12/23 07:59:23;;;;;;;;;;;-0.30;99.90;;;;;;5032781;28;19939;-80
2021/12/23 08:01:49;;;;;;;;;;;-0.30;99.90;;;;;;5034162;28;20094;-79
2021/12/23 08:04:14;;;;;;;;;;;-0.30;99.90;;;;;;5034873;28;19960;-79
2021/12/23 08:06:40;;;;;;;;;;;-0.30;99.90;;;;;;5035428;28;19967;-79
2021/12/23 08:09:05;;;;;;;;;;;-0.30;99.90;;;;;;5034495;28;19921;-79
2021/12/23 08:11:31;;;;;;;;;;;-0.30;99.90;;;;;;5035396;28;19923;-79
2021/12/23 08:13:57;;;;;;;;;;;-0.20;99.90;;;;;;5034931;28;19917;-79
2021/12/23 08:16:22;;;;;;;;;;;-0.20;99.90;;;;;;5035312;28;20264;-79
2021/12/23 08:18:48;;;;;;;;;;;-0.20;99.90;;;;;;5034029;28;19921;-79
2021/12/23 08:21:14;;;;;;;;;;;-0.20;99.90;;;;;;5032984;28;19971;-78
2021/12/23 08:23:39;;;;;;;;;;;-0.20;99.90;;;;;;5044771;28;20232;-79
2021/12/23 08:26:11;;;;;;;;;;;-0.20;99.90;;;;;;5033930;28;20008;-79
2021/12/23 08:28:37;;;;;;;;;;;-0.20;99.90;;;;;;5030843;28;19924;-80
2021/12/23 08:31:02;;;;;;;;;;;-0.20;99.90;;;;;;5032895;28;19917;-79
2021/12/23 08:33:28;;;;;;;;;;;-0.10;99.90;;;;;;5033698;28;20256;-81
2021/12/23 08:35:54;;;;;;;;;;;-0.10;99.90;;;;;;5031978;28;20232;-80
2021/12/23 08:38:19;;;;;;;;;;;-0.10;99.90;;;;;;5033182;28;22117;-80
2021/12/23 08:40:45;;;;;;;;;;;-0.10;99.90;;;;;;5045517;28;19921;-80
2021/12/23 08:43:11;;;;;;;;;;;-0.10;99.90;;;;;;5032439;28;19921;-78
2021/12/23 08:45:36;;;;;;;;;;;-0.10;99.90;;;;;;5032423;28;19920;-81
2021/12/23 08:48:02;;;;;;;;;;;-0.20;99.90;;;;;;5032257;28;20347;-80
2021/12/23 08:50:29;;;;;;;;;;;-0.20;99.90;;;;;;5032888;28;19917;-81
2021/12/23 08:52:55;;;;;;;;;;;-0.20;99.90;;;;;;5031577;28;20386;-80
2021/12/23 08:55:21;;;;;;;;;;;-0.20;99.90;;;;;;5031917;28;19948;-79
2021/12/23 08:57:47;;;;;;;;;;;-0.20;99.90;;;;;;5027881;28;19964;-81
2021/12/23 09:00:14;;;;;;;;;;;-0.20;99.90;;;;;;5031947;28;20003;-79
2021/12/23 09:02:40;;;;;;;;;;;-0.20;99.90;;;;;;5020253;28;19939;-80
2021/12/23 09:05:06;;;;;;;;;;;-0.10;99.90;;;;;;5032523;28;20312;-80
2021/12/23 09:07:32;;;;;;;;;;;-0.10;99.90;;;;;;5031812;28;20322;-80
2021/12/23 09:09:57;;;;;;;;;;;0.00;99.90;;;;;;5031726;28;19921;-79
2021/12/23 09:12:23;;;;;;;;;;;0.00;99.90;;;;;;5030183;28;19963;-80
2021/12/23 09:14:49;;;;;;;;;;;0.00;99.90;;;;;;5033005;28;19960;-80
2021/12/23 09:17:15;;;;;;;;;;;0.00;99.90;;;;;;5032571;28;19983;-79
2021/12/23 09:19:41;;;;;;;;;;;0.00;99.90;;;;;;5032195;28;19961;-80
2021/12/23 09:22:08;;;;;;;;;;;0.00;99.90;;;;;;5028624;28;20292;-80
2021/12/23 09:24:35;;;;;;;;;;;0.00;99.90;;;;;;5032610;28;19928;-78
2021/12/23 09:27:15;;;;;;;;;;;0.00;99.90;;;;;;5031804;28;21653;-81
2021/12/23 09:34:53;;;;;;;;;;;0.00;99.90;;;;;;5036818;28;20208;-81
2021/12/23 09:37:19;;;;;;;;;;;0.00;99.90;;;;;;5035383;28;19921;-82
2021/12/23 09:39:45;;;;;;;;;;;0.00;99.90;;;;;;5036391;28;20330;-82
2021/12/23 09:42:12;;;;;;;;;;;0.10;99.90;;;;;;5037051;28;19917;-75
2021/12/23 09:44:41;;;;;;;;;;;0.10;99.90;;;;;;5034329;28;21179;-82
2021/12/23 09:47:06;;;;;;;;;;;0.10;99.90;;;;;;5023562;28;19921;-83
2021/12/23 09:49:32;;;;;;;;;;;0.10;99.90;;;;;;5029729;28;20012;-81
2021/12/23 09:52:03;;;;;;;;;;;0.10;99.90;;;;;;5032545;28;20003;-82
2021/12/23 09:54:29;;;;;;;;;;;0.20;99.90;;;;;;5030052;28;20212;-81
2021/12/23 09:56:55;;;;;;;;;;;0.10;99.90;;;;;;5019834;28;19931;-81
2021/12/23 09:59:26;;;;;;;;;;;0.10;99.90;;;;;;5027324;28;19917;-79
2021/12/23 10:01:52;;;;;;;;;;;0.10;99.90;;;;;;5032576;28;19967;-80
2021/12/23 10:04:18;;;;;;;;;;;0.10;99.90;;;;;;5030496;28;19917;-81
2021/12/23 10:06:43;;;;;;;;;;;0.10;99.90;;;;;;5030970;28;20327;-81
2021/12/23 10:09:10;;;;;;;;;;;0.10;99.90;;;;;;5032740;28;20008;-83
2021/12/23 10:12:37;;;;;;;;;;;0.10;99.90;;;;;;5040689;28;19948;-81
2021/12/23 10:31:25;;;;;;;;;;;0.20;99.90;;;;;;5031564;28;19975;-84
2021/12/23 10:37:15;;;;;;;;;;;0.20;99.90;;;;;;5033214;28;19963;-82
2021/12/23 10:39:52;;;;;;;;;;;0.30;99.90;;;;;;5044093;28;20016;-81
2021/12/23 10:42:24;;;;;;;;;;;0.30;99.90;;;;;;5031562;28;19937;-83
2021/12/23 10:44:51;;;;;;;;;;;0.30;99.90;;;;;;5031897;28;19932;-77
2021/12/23 10:47:32;;;;;;;;;;;0.30;99.90;;;;;;5030674;28;19917;-82
2021/12/23 10:50:38;;;;;;;;;;;0.30;99.90;;;;;;5032306;28;19917;-77
2021/12/23 10:53:14;;;;;;;;;;;0.30;99.90;;;;;;4988106;28;19917;-78
2021/12/23 10:58:24;;;;;;;;;;;0.40;99.90;;;;;;4989709;28;19928;-82
2021/12/23 11:00:54;;;;;;;;;;;0.50;99.90;;;;;;4989815;28;20244;-84
2021/12/23 11:03:27;;;;;;;;;;;0.50;99.90;;;;;;4987946;28;19922;-83
2021/12/23 11:06:01;;;;;;;;;;;0.50;99.90;;;;;;4975163;28;20228;-83
2021/12/23 11:35:47;;;;;;;;;;;0.80;99.90;;;;;;5032264;28;19917;-79
2021/12/23 11:38:31;;;;;;;;;;;0.80;99.90;;;;;;5046320;28;19921;-83
2021/12/23 11:41:04;;;;;;;;;;;0.90;99.90;;;;;;5027338;28;19921;-83
2021/12/23 11:43:44;;;;;;;;;;;0.90;99.90;;;;;;5029440;28;19921;-90
2021/12/23 11:46:11;;;;;;;;;;;0.90;99.90;;;;;;5022938;28;19924;-84
2021/12/23 11:48:41;;;;;;;;;;;1.00;99.90;;;;;;5029598;28;19932;-82
2021/12/23 11:51:11;;;;;;;;;;;1.00;99.90;;;;;;5035428;28;19917;-83
2021/12/23 11:53:37;;;;;;;;;;;1.00;99.90;;;;;;5034662;28;20707;-88
2021/12/23 11:56:04;;;;;;;;;;;1.10;99.90;;;;;;5033099;28;19921;-82
2021/12/23 11:58:30;;;;;;;;;;;1.10;99.90;;;;;;5033490;28;19925;-80
2021/12/23 12:01:00;;;;;;;;;;;1.10;99.90;;;;;;5033915;28;19914;-81
2021/12/23 12:03:26;;;;;;;;;;;1.20;99.90;;;;;;5032676;28;19982;-82
2021/12/23 12:05:51;;;;;;;;;;;1.20;99.90;;;;;;5034600;28;20326;-84
2021/12/23 12:08:23;;;;;;;;;;;1.20;99.90;;;;;;5035564;28;20004;-84
2021/12/23 12:10:48;;;;;;;;;;;1.30;99.90;;;;;;5032921;28;19917;-85
2021/12/23 12:13:16;;;;;;;;;;;1.30;99.90;;;;;;5024780;28;19914;-82
2021/12/23 12:15:47;;;;;;;;;;;1.40;99.90;;;;;;5029803;28;19919;-82
2021/12/23 12:18:19;;;;;;;;;;;1.50;99.90;;;;;;5047249;28;19918;-84
2021/12/23 12:20:52;;;;;;;;;;;1.50;99.90;;;;;;5030811;28;19913;-85
2021/12/23 12:23:34;;;;;;;;;;;1.60;99.90;;;;;;5034788;28;19939;-86
2021/12/23 12:26:09;;;;;;;;;;;1.60;99.90;;;;;;5032874;28;19917;-79
2021/12/23 12:28:37;;;;;;;;;;;1.70;99.90;;;;;;5033527;28;19913;-84
2021/12/23 12:31:22;;;;;;;;;;;1.70;99.90;;;;;;5033120;28;19956;-82
2021/12/23 12:33:53;;;;;;;;;;;1.80;99.90;;;;;;5028512;28;19968;-84
2021/12/23 12:36:19;;;;;;;;;;;1.80;99.90;;;;;;5034662;28;20305;-85
2021/12/23 12:38:50;;;;;;;;;;;1.80;99.90;;;;;;5034332;28;19920;-84
2021/12/23 12:41:34;;;;;;;;;;;1.80;99.90;;;;;;5029058;28;19922;-84
2021/12/23 12:44:06;;;;;;;;;;;1.80;99.90;;;;;;5049610;28;19924;-85
2021/12/23 12:46:50;;;;;;;;;;;1.90;99.90;;;;;;5046078;28;19918;-82
2021/12/23 12:49:24;;;;;;;;;;;1.90;99.90;;;;;;5025740;28;20276;-82
2021/12/23 12:51:50;;;;;;;;;;;1.80;99.90;;;;;;5032864;28;19923;-85
2021/12/23 12:54:25;;;;;;;;;;;1.90;99.90;;;;;;5032466;28;19921;-84
2021/12/23 12:57:02;;;;;;;;;;;1.80;99.90;;;;;;5034247;28;19925;-79
2021/12/23 12:59:29;;;;;;;;;;;1.80;99.90;;;;;;5035334;28;19920;-89
2021/12/23 13:01:55;;;;;;;;;;;1.80;99.90;;;;;;5034793;28;20228;-83
2021/12/23 13:04:41;;;;;;;;;;;1.80;99.90;;;;;;5031716;28;20201;-84
2021/12/23 13:07:25;;;;;;;;;;;1.80;99.90;;;;;;5051162;28;19917;-87
2021/12/23 13:09:58;;;;;;;;;;;1.80;99.90;;;;;;5037931;28;19913;-79
2021/12/23 13:12:31;;;;;;;;;;;1.90;99.90;;;;;;5053525;28;19956;-83
2021/12/23 13:15:16;;;;;;;;;;;1.90;99.90;;;;;;5037456;28;19966;-83
2021/12/23 13:18:00;;;;;;;;;;;2.00;99.90;;;;;;5031261;28;20015;-86
2021/12/23 13:20:32;;;;;;;;;;;2.10;99.90;;;;;;5034972;28;19921;-85
2021/12/23 13:23:03;;;;;;;;;;;2.10;99.90;;;;;;5053601;28;19913;-83
2021/12/23 13:25:29;;;;;;;;;;;2.10;99.90;;;;;;5037707;28;19921;-85
2021/12/23 13:27:55;;;;;;;;;;;2.20;99.90;;;;;;5037643;28;19940;-83
2021/12/23 13:30:20;;;;;;;;;;;2.20;99.90;;;;;;5035717;28;19917;-91
2021/12/23 13:33:09;;;;;;;;;;;2.30;99.90;;;;;;5042400;28;19956;-85
2021/12/23 13:35:34;;;;;;;;;;;2.20;99.90;;;;;;5034601;28;19913;-84
2021/12/23 13:38:00;;;;;;;;;;;2.30;99.90;;;;;;5037661;28;19932;-85
2021/12/23 13:40:27;;;;;;;;;;;2.30;99.90;;;;;;5037525;28;19925;-82
2021/12/23 13:42:52;;;;;;;;;;;2.30;99.90;;;;;;5036429;28;19964;-85
2021/12/23 13:45:19;;;;;;;;;;;2.40;99.90;;;;;;5029985;28;19955;-83
2021/12/23 13:47:45;;;;;;;;;;;2.40;99.90;;;;;;5031564;28;19918;-82
2021/12/23 13:50:11;;;;;;;;;;;2.40;99.90;;;;;;5038150;28;19924;-80
2021/12/23 13:52:39;;;;;;;;;;;2.40;99.90;;;;;;5038324;28;20301;-86
2021/12/23 13:55:05;;;;;;;;;;;2.40;99.90;;;;;;5036460;28;19913;-84
2021/12/23 13:57:33;;;;;;;;;;;2.50;99.90;;;;;;5052745;28;19958;-82
2021/12/23 13:59:58;;;;;;;;;;;2.50;99.90;;;;;;5037110;28;20004;-82
2021/12/23 14:02:25;;;;;;;;;;;2.50;99.90;;;;;;5037949;28;20007;-83
2021/12/23 14:04:52;;;;;;;;;;;2.50;99.90;;;;;;5031883;28;19918;-84
2021/12/23 14:07:28;;;;;;;;;;;2.50;99.90;;;;;;5034493;28;19921;-83
2021/12/23 14:09:56;;;;;;;;;;;2.50;99.90;;;;;;5034867;28;19948;-82
2021/12/23 14:12:24;;;;;;;;;;;2.50;99.90;;;;;;5033429;28;20006;-82
2021/12/23 14:14:54;;;;;;;;;;;2.50;99.90;;;;;;5032372;28;19921;-82
2021/12/23 14:17:41;;;;;;;;;;;2.60;99.90;;;;;;5034145;28;19925;-80
2021/12/23 14:23:12;;;;;;;;;;;2.60;99.90;;;;;;5035434;28;19920;-86
2021/12/23 14:25:44;;;;;;;;;;;2.60;99.90;;;;;;5032833;28;19913;-84
2021/12/23 14:28:11;;;;;;;;;;;2.60;99.90;;;;;;5047751;28;20319;-82
2021/12/23 14:30:51;;;;;;;;;;;2.60;99.90;;;;;;5038717;28;19917;-83
2021/12/23 14:33:18;;;;;;;;;;;2.60;99.90;;;;;;5036342;28;20201;-82
2021/12/23 14:35:51;;;;;;;;;;;2.60;99.90;;;;;;5036691;28;20324;-83
2021/12/23 14:38:27;;;;;;;;;;;2.60;99.90;;;;;;5036410;28;19917;-85
2021/12/23 14:40:58;;;;;;;;;;;2.60;99.90;;;;;;5039330;28;19921;-85
2021/12/23 14:43:24;;;;;;;;;;;2.60;99.90;;;;;;5036570;28;19968;-85
2021/12/23 14:45:53;;;;;;;;;;;2.60;99.90;;;;;;5032071;28;19961;-84
2021/12/23 14:48:19;;;;;;;;;;;2.60;99.90;;;;;;5035498;28;19906;-85
2021/12/23 14:51:01;;;;;;;;;;;2.70;99.90;;;;;;5033522;28;19920;-87
2021/12/23 14:53:27;;;;;;;;;;;2.70;99.90;;;;;;5036019;28;19916;-83
2021/12/23 14:55:54;;;;;;;;;;;2.70;99.90;;;;;;5035037;28;19940;-85
2021/12/23 14:58:19;;;;;;;;;;;2.70;99.90;;;;;;5030329;28;19978;-82
2021/12/23 15:00:45;;;;;;;;;;;2.70;99.90;;;;;;5035082;28;19968;-85
2021/12/23 15:03:12;;;;;;;;;;;2.70;99.90;;;;;;5036427;28;20006;-80
2021/12/23 15:05:40;;;;;;;;;;;2.70;99.90;;;;;;5031075;28;19971;-82
2021/12/23 15:08:06;;;;;;;;;;;2.80;99.90;;;;;;5033996;28;19971;-79
2021/12/23 15:10:40;;;;;;;;;;;2.80;99.90;;;;;;5050341;28;20062;-86
2021/12/23 15:13:18;;;;;;;;;;;2.80;99.90;;;;;;5049597;28;19966;-88
2021/12/23 15:15:44;;;;;;;;;;;2.80;99.90;;;;;;5044471;28;19917;-86
2021/12/23 15:18:53;;;;;;;;;;;2.80;99.90;;;;;;5033168;28;20194;-86
2021/12/23 15:21:29;;;;;;;;;;;2.90;99.90;;;;;;5031901;28;19963;-84
2021/12/23 15:23:55;;;;;;;;;;;2.90;99.90;;;;;;5032236;28;19940;-82
2021/12/23 15:26:24;;;;;;;;;;;2.90;99.90;;;;;;5030262;28;19951;-82
2021/12/23 15:29:11;;;;;;;;;;;2.90;99.90;;;;;;5047794;28;20344;-86
2021/12/23 15:31:37;;;;;;;;;;;3.00;99.90;;;;;;5047807;28;19920;-83
2021/12/23 15:34:09;;;;;;;;;;;3.00;99.90;;;;;;5034973;28;19921;-83
2021/12/23 15:36:36;;;;;;;;;;;3.00;99.90;;;;;;5032279;28;19913;-86